createdAt,value
2018-07-17T00:02:01.780Z,98500.77
2018-07-17T00:04:30.090Z,98497.36
2018-07-17T00:06:58.408Z,98498.52
2018-07-17T00:09:26.978Z,98501.27
2018-07-17T00:11:55.321Z,98500.56
2018-07-17T00:14:23.744Z,98499.04
2018-07-17T00:16:52.136Z,98495.30
2018-07-17T00:19:20.511Z,98500.41
2018-07-17T00:21:48.833Z,98498.95
2018-07-17T00:24:17.206Z,98497.33
2018-07-17T00:26:45.571Z,98500.89
2018-07-17T00:29:13.891Z,98492.56
2018-07-17T00:31:42.188Z,98487.53
2018-07-17T00:34:10.510Z,98485.40
2018-07-17T00:36:38.869Z,98480.47
2018-07-17T00:39:07.639Z,98488.41
2018-07-17T00:41:36.703Z,98487.84
2018-07-17T00:44:05.023Z,98490.27
2018-07-17T00:46:33.478Z,98490.45
2018-07-17T00:49:01.913Z,98484.82
2018-07-17T00:51:30.304Z,98487.59
2018-07-17T00:53:58.667Z,98490.31
2018-07-17T00:56:26.982Z,98492.72
2018-07-17T00:58:55.508Z,98492.75
2018-07-17T01:01:29.145Z,98491.00
2018-07-17T01:04:02.995Z,98490.33
2018-07-17T01:06:36.635Z,98492.00
2018-07-17T01:09:11.950Z,98491.80
2018-07-17T01:11:45.608Z,98479.94
2018-07-17T01:14:18.157Z,98490.71
2018-07-17T01:16:46.535Z,98483.00
2018-07-17T01:19:16.884Z,98482.16
2018-07-17T01:21:45.294Z,98484.85
2018-07-17T01:24:13.636Z,98474.71
2018-07-17T01:26:42.002Z,98478.45
2018-07-17T01:29:10.362Z,98477.77
2018-07-17T01:31:38.646Z,98473.08
2018-07-17T01:34:06.986Z,98472.55
2018-07-17T01:36:35.330Z,98478.13
2018-07-17T01:39:04.167Z,98472.38
2018-07-17T01:41:32.507Z,98472.70
2018-07-17T01:44:00.851Z,98476.43
2018-07-17T01:46:29.143Z,98489.10
2018-07-17T01:48:57.587Z,98488.69
2018-07-17T01:51:25.977Z,98483.80
2018-07-17T01:53:54.331Z,98491.91
2018-07-17T01:56:22.630Z,98491.25
2018-07-17T01:58:50.983Z,98485.55
2018-07-17T02:01:19.295Z,98488.59
2018-07-17T02:03:47.670Z,98488.27
2018-07-17T02:06:15.992Z,98484.06
2018-07-17T02:08:44.382Z,98477.91
2018-07-17T02:11:12.816Z,98480.34
2018-07-17T02:13:41.179Z,98474.27
2018-07-17T02:16:09.555Z,98480.31
2018-07-17T02:18:37.935Z,98475.52
2018-07-17T02:21:06.489Z,98473.44
2018-07-17T02:23:34.820Z,98477.59
2018-07-17T02:26:03.250Z,98468.41
2018-07-17T02:28:31.503Z,98468.72
2018-07-17T02:30:59.871Z,98464.95
2018-07-17T02:33:28.212Z,98472.84
2018-07-17T02:35:56.543Z,98475.47
2018-07-17T02:38:24.914Z,98478.72
2018-07-17T02:40:53.261Z,98473.94
2018-07-17T02:43:21.652Z,98476.47
2018-07-17T02:45:49.983Z,98477.09
2018-07-17T02:48:18.348Z,98469.08
2018-07-17T02:50:46.697Z,98467.09
2018-07-17T02:53:15.123Z,98468.87
2018-07-17T02:55:43.473Z,98470.77
2018-07-17T02:58:11.798Z,98472.48
2018-07-17T03:00:40.589Z,98471.25
2018-07-17T03:03:08.926Z,98479.77
2018-07-17T03:05:37.291Z,98489.61
2018-07-17T03:08:05.696Z,98487.58
2018-07-17T03:10:34.061Z,98499.52
2018-07-17T03:13:02.415Z,98495.98
2018-07-17T03:15:30.780Z,98497.95
2018-07-17T03:17:59.094Z,98498.46
2018-07-17T03:20:27.435Z,98501.30
2018-07-17T03:22:55.748Z,98499.59
2018-07-17T03:25:24.099Z,98507.40
2018-07-17T03:27:52.519Z,98503.41
2018-07-17T03:30:20.867Z,98506.89
2018-07-17T03:32:49.159Z,98510.60
2018-07-17T03:35:17.565Z,98512.78
2018-07-17T03:37:45.999Z,98504.98
2018-07-17T03:40:14.348Z,98506.78
2018-07-17T03:42:42.661Z,98505.92
2018-07-17T03:45:11.028Z,98510.34
2018-07-17T03:47:40.452Z,98516.09
2018-07-17T03:50:08.862Z,98515.75
2018-07-17T03:52:37.323Z,98515.09
2018-07-17T03:55:05.699Z,98511.02
2018-07-17T03:57:34.059Z,98506.84
2018-07-17T04:00:02.433Z,98508.70
2018-07-17T04:02:30.775Z,98510.05
2018-07-17T04:04:59.066Z,98508.16
2018-07-17T04:07:27.372Z,98506.59
2018-07-17T04:09:55.740Z,98505.12
2018-07-17T04:12:24.128Z,98507.69
2018-07-17T04:14:52.438Z,98504.42
2018-07-17T04:17:20.778Z,98509.75
2018-07-17T04:19:49.143Z,98502.58
2018-07-17T04:22:17.667Z,98502.81
2018-07-17T04:24:45.972Z,98507.86
2018-07-17T04:27:14.341Z,98501.29
2018-07-17T04:29:42.638Z,98504.79
2018-07-17T04:32:11.010Z,98501.80
2018-07-17T04:34:39.363Z,98502.97
2018-07-17T04:37:07.764Z,98501.31
2018-07-17T04:39:36.080Z,98503.92
2018-07-17T04:42:04.414Z,98508.59
2018-07-17T04:44:32.782Z,98518.12
2018-07-17T04:47:01.149Z,98518.23
2018-07-17T04:49:29.495Z,98520.41
2018-07-17T04:51:57.858Z,98526.39
2018-07-17T04:54:26.194Z,98528.66
2018-07-17T04:56:54.779Z,98534.09
2018-07-17T04:59:23.090Z,98535.20
2018-07-17T05:01:51.532Z,98530.24
2018-07-17T05:04:19.873Z,98533.00
2018-07-17T05:06:48.310Z,98534.36
2018-07-17T05:09:16.618Z,98532.25
2018-07-17T05:11:45.027Z,98530.50
2018-07-17T05:14:13.361Z,98531.13
2018-07-17T05:16:42.412Z,98528.23
2018-07-17T05:19:10.808Z,98529.02
2018-07-17T05:21:39.183Z,98526.86
2018-07-17T05:24:07.566Z,98538.89
2018-07-17T05:26:35.931Z,98528.61
2018-07-17T05:29:04.443Z,98523.86
2018-07-17T05:31:32.790Z,98530.74
2018-07-17T05:34:03.007Z,98530.11
2018-07-17T05:36:31.565Z,98530.48
2018-07-17T05:38:59.914Z,98535.01
2018-07-17T05:41:28.368Z,98532.27
2018-07-17T05:43:56.751Z,98543.88
2018-07-17T05:46:25.269Z,98540.34
2018-07-17T05:48:53.591Z,98536.91
2018-07-17T05:51:21.974Z,98537.49
2018-07-17T05:53:50.645Z,98537.78
2018-07-17T05:56:19.255Z,98541.88
2018-07-17T05:58:47.659Z,98537.99
2018-07-17T06:01:15.994Z,98539.20
2018-07-17T06:03:44.546Z,98538.22
2018-07-17T06:06:13.332Z,98538.20
2018-07-17T06:08:42.061Z,98541.12
2018-07-17T06:11:10.481Z,98535.28
2018-07-17T06:13:38.927Z,98534.83
2018-07-17T06:16:07.277Z,98534.95
2018-07-17T06:18:35.774Z,98532.49
2018-07-17T06:21:04.106Z,98530.13
2018-07-17T06:23:32.458Z,98530.45
2018-07-17T06:26:00.852Z,98521.20
2018-07-17T06:28:29.242Z,98519.49
2018-07-17T06:33:24.920Z,98519.25
2018-07-17T06:35:56.762Z,98522.36
2018-07-17T06:38:25.084Z,98524.05
2018-07-17T06:40:53.515Z,98527.34
2018-07-17T06:43:21.887Z,98530.27
2018-07-17T06:45:51.751Z,98532.11
2018-07-17T06:48:24.592Z,98527.38
2018-07-17T06:50:53.126Z,98526.98
2018-07-17T06:53:22.040Z,98522.98
2018-07-17T06:55:51.820Z,98532.89
2018-07-17T06:58:20.257Z,98532.22
2018-07-17T07:00:48.647Z,98533.59
2018-07-17T07:03:17.279Z,98532.76
2018-07-17T07:05:45.560Z,98530.15
2018-07-17T07:08:14.210Z,98531.31
2018-07-17T07:10:42.559Z,98530.16
2018-07-17T07:13:11.332Z,98525.20
2018-07-17T07:15:39.882Z,98526.48
2018-07-17T07:18:08.278Z,98529.81
2018-07-17T07:20:39.319Z,98535.45
2018-07-17T07:23:08.101Z,98534.29
2018-07-17T07:25:36.443Z,98530.94
2018-07-17T07:28:04.766Z,98539.28
2018-07-17T07:30:33.130Z,98541.56
2018-07-17T07:33:02.609Z,98535.77
2018-07-17T07:35:31.138Z,98543.42
2018-07-17T07:37:59.896Z,98535.18
2018-07-17T07:40:28.250Z,98532.31
2018-07-17T07:42:56.891Z,98536.19
2018-07-17T07:45:25.229Z,98532.09
2018-07-17T07:47:53.798Z,98528.60
2018-07-17T07:50:24.399Z,98527.12
2018-07-17T07:52:53.164Z,98535.51
2018-07-17T07:55:21.562Z,98535.67
2018-07-17T07:57:50.705Z,98530.39
2018-07-17T08:00:19.180Z,98534.58
2018-07-17T08:02:47.477Z,98522.15
2018-07-17T08:05:16.074Z,98525.64
2018-07-17T08:07:44.631Z,98514.15
2018-07-17T08:10:13.502Z,98529.00
2018-07-17T08:12:41.818Z,98520.45
2018-07-17T08:15:10.407Z,98525.39
2018-07-17T08:17:38.730Z,98527.24
2018-07-17T08:20:07.094Z,98526.91
2018-07-17T08:22:35.674Z,98523.41
2018-07-17T08:25:04.164Z,98524.42
2018-07-17T08:27:33.042Z,98524.88
2018-07-17T08:30:01.412Z,98523.20
2018-07-17T08:32:29.729Z,98525.64
2018-07-17T08:34:58.082Z,98526.25
2018-07-17T08:37:26.410Z,98519.41
2018-07-17T08:39:54.775Z,98526.92
2018-07-17T08:42:23.046Z,98525.08
2018-07-17T08:44:51.355Z,98521.70
2018-07-17T08:47:19.665Z,98520.02
2018-07-17T08:49:48.061Z,98516.19
2018-07-17T08:52:16.418Z,98520.54
2018-07-17T08:54:44.943Z,98528.49
2018-07-17T08:57:13.195Z,98527.91
2018-07-17T08:59:41.514Z,98527.86
2018-07-17T09:02:10.211Z,98522.97
2018-07-17T09:04:38.554Z,98526.39
2018-07-17T09:07:06.899Z,98527.22
2018-07-17T09:09:35.203Z,98534.75
2018-07-17T09:12:03.580Z,98538.22
2018-07-17T09:14:31.911Z,98535.19
2018-07-17T09:17:00.403Z,98531.86
2018-07-17T09:19:28.731Z,98525.66
2018-07-17T09:21:57.107Z,98528.50
2018-07-17T09:24:25.520Z,98521.19
2018-07-17T09:26:53.866Z,98527.39
2018-07-17T09:29:23.143Z,98520.80
2018-07-17T09:31:51.534Z,98527.53
2018-07-17T09:34:19.965Z,98520.73
2018-07-17T09:36:48.266Z,98516.34
2018-07-17T09:39:16.869Z,98516.69
2018-07-17T09:41:45.686Z,98517.56
2018-07-17T09:44:19.618Z,98518.84
2018-07-17T09:49:31.280Z,98521.44
2018-07-17T09:52:22.285Z,98518.23
2018-07-17T09:54:50.885Z,98518.55
2018-07-17T09:57:19.285Z,98521.05
2018-07-17T09:59:47.589Z,98525.39
2018-07-17T10:02:22.100Z,98519.39
2018-07-17T10:04:52.639Z,98517.56
2018-07-17T10:07:21.078Z,98516.42
2018-07-17T10:09:50.772Z,98526.95
2018-07-17T10:12:21.975Z,98515.61
2018-07-17T10:14:51.692Z,98519.27
2018-07-17T10:17:20.128Z,98517.75
2018-07-17T10:19:48.626Z,98524.16
2018-07-17T10:22:16.810Z,98533.34
2018-07-17T10:24:45.164Z,98530.20
2018-07-17T10:27:13.607Z,98530.09
2018-07-17T10:29:42.078Z,98529.36
2018-07-17T10:32:11.708Z,98536.18
2018-07-17T10:34:40.286Z,98538.39
2018-07-17T10:37:08.691Z,98532.30
2018-07-17T10:39:37.102Z,98537.06
2018-07-17T10:42:05.502Z,98532.38
2018-07-17T10:44:33.889Z,98535.55
2018-07-17T10:47:02.272Z,98537.91
2018-07-17T10:49:30.665Z,98529.75
2018-07-17T10:51:59.120Z,98526.39
2018-07-17T10:54:27.499Z,98531.28
2018-07-17T10:56:56.425Z,98523.44
2018-07-17T10:59:24.965Z,98522.27
2018-07-17T11:01:53.751Z,98525.67
2018-07-17T11:04:22.133Z,98522.25
2018-07-17T11:06:50.671Z,98513.22
2018-07-17T11:09:19.764Z,98508.33
2018-07-17T11:11:48.718Z,98515.41
2018-07-17T11:14:17.640Z,98517.67
2018-07-17T11:16:47.341Z,98520.55
2018-07-17T11:19:16.203Z,98520.50
2018-07-17T11:21:44.726Z,98510.53
2018-07-17T11:24:13.092Z,98510.48
2018-07-17T11:26:41.501Z,98505.91
2018-07-17T11:29:10.096Z,98506.02
2018-07-17T11:31:38.626Z,98503.94
2018-07-17T11:34:07.347Z,98494.48
2018-07-17T11:36:37.165Z,98493.59
2018-07-17T11:39:06.804Z,98487.23
2018-07-17T11:41:35.496Z,98487.03
2018-07-17T11:44:03.923Z,98483.85
2018-07-17T11:46:32.378Z,98476.98
2018-07-17T11:49:00.868Z,98484.87
2018-07-17T11:51:31.795Z,98479.84
2018-07-17T11:54:02.330Z,98490.17
2018-07-17T11:56:32.686Z,98478.41
2018-07-17T11:59:01.303Z,98477.19
2018-07-17T12:01:29.646Z,98469.67
2018-07-17T12:03:58.167Z,98478.44
2018-07-17T12:06:26.498Z,98480.06
2018-07-17T12:08:54.839Z,98465.25
2018-07-17T12:11:23.419Z,98478.05
2018-07-17T12:13:51.950Z,98466.19
2018-07-17T12:16:20.416Z,98466.39
2018-07-17T12:18:48.767Z,98460.98
2018-07-17T12:21:17.355Z,98468.11
2018-07-17T12:23:45.848Z,98479.13
2018-07-17T12:26:14.149Z,98467.84
2018-07-17T12:28:42.553Z,98476.14
2018-07-17T12:31:11.086Z,98463.79
2018-07-17T12:33:39.469Z,98462.46
2018-07-17T12:36:08.725Z,98454.41
2018-07-17T12:38:39.095Z,98452.26
2018-07-17T12:41:08.120Z,98455.77
2018-07-17T12:43:36.630Z,98456.77
2018-07-17T12:46:05.141Z,98455.64
2018-07-17T12:48:33.511Z,98458.51
2018-07-17T12:51:03.333Z,98464.80
2018-07-17T12:53:33.305Z,98463.73
2018-07-17T12:56:01.707Z,98465.43
2018-07-17T12:58:30.231Z,98458.81
2018-07-17T13:00:58.595Z,98446.80
2018-07-17T13:03:27.006Z,98457.59
2018-07-17T13:05:55.354Z,98448.98
2018-07-17T13:08:24.229Z,98451.26
2018-07-17T13:10:52.891Z,98445.75
2018-07-17T13:13:21.257Z,98444.69
2018-07-17T13:15:49.598Z,98439.08
2018-07-17T13:18:18.194Z,98453.47
2018-07-17T13:20:46.539Z,98456.20
2018-07-17T13:23:14.966Z,98449.54
2018-07-17T13:25:43.435Z,98440.74
2018-07-17T13:28:11.832Z,98436.20
2018-07-17T13:30:40.222Z,98452.78
2018-07-17T13:33:08.649Z,98450.25
2018-07-17T13:35:37.124Z,98450.30
2018-07-17T13:38:05.517Z,98448.22
2018-07-17T13:40:33.862Z,98439.47
2018-07-17T13:43:02.355Z,98448.37
2018-07-17T13:45:31.156Z,98443.69
2018-07-17T13:47:59.511Z,98439.52
2018-07-17T13:50:27.820Z,98445.30
2018-07-17T13:52:56.326Z,98440.74
2018-07-17T13:55:24.711Z,98446.93
2018-07-17T13:57:53.100Z,98449.45
2018-07-17T14:00:21.466Z,98440.45
2018-07-17T14:02:49.771Z,98459.34
2018-07-17T14:05:18.335Z,98445.05
2018-07-17T14:07:46.645Z,98434.41
2018-07-17T14:10:15.018Z,98435.03
2018-07-17T14:12:43.389Z,98437.64
2018-07-17T14:15:12.093Z,98434.88
2018-07-17T14:17:40.456Z,98440.90
2018-07-17T14:20:08.923Z,98443.10
2018-07-17T14:22:37.662Z,98448.91
2018-07-17T14:25:06.228Z,98437.44
2018-07-17T14:27:34.591Z,98448.40
2018-07-17T14:30:03.015Z,98443.38
2018-07-17T14:32:31.416Z,98442.85
2018-07-17T14:35:00.006Z,98457.41
2018-07-17T14:37:28.928Z,98448.63
2018-07-17T14:39:59.675Z,98456.66
2018-07-17T14:42:28.209Z,98456.33
2018-07-17T14:45:00.182Z,98444.75
2018-07-17T14:47:29.045Z,98430.27
2018-07-17T14:49:57.392Z,98437.23
2018-07-17T14:52:26.019Z,98441.44
2018-07-17T14:54:54.465Z,98443.39
2018-07-17T14:57:22.985Z,98432.65
2018-07-17T14:59:51.740Z,98438.69
2018-07-17T15:02:20.411Z,98433.69
2018-07-17T15:04:48.707Z,98437.53
2018-07-17T15:07:17.008Z,98437.20
2018-07-17T15:09:45.370Z,98436.67
2018-07-17T15:12:13.723Z,98434.73
2018-07-17T15:14:42.084Z,98430.94
2018-07-17T15:17:10.798Z,98433.64
2018-07-17T15:19:39.130Z,98431.58
2018-07-17T15:22:07.411Z,98438.23
2018-07-17T15:24:46.406Z,98453.25
2018-07-17T15:27:15.830Z,98442.05
2018-07-17T15:29:45.210Z,98445.23
2018-07-17T15:32:13.958Z,98436.27
2018-07-17T15:34:43.436Z,98438.71
2018-07-17T15:37:12.848Z,98438.45
2018-07-17T15:39:42.044Z,98437.52
2018-07-17T15:42:10.531Z,98444.72
2018-07-17T15:44:39.032Z,98439.29
2018-07-17T15:47:07.516Z,98436.69
2018-07-17T15:49:35.937Z,98435.66
2018-07-17T15:52:04.307Z,98429.70
2018-07-17T15:54:32.748Z,98424.28
2018-07-17T15:57:02.237Z,98429.16
2018-07-17T15:59:31.534Z,98432.75
2018-07-17T16:01:59.888Z,98440.16
2018-07-17T16:04:28.215Z,98442.45
2018-07-17T16:06:56.552Z,98438.09
2018-07-17T16:09:24.927Z,98438.06
2018-07-17T16:11:53.367Z,98445.75
2018-07-17T16:14:22.056Z,98443.50
2018-07-17T16:16:50.145Z,98441.34
2018-07-17T16:19:18.526Z,98444.49
2018-07-17T16:21:46.902Z,98444.99
2018-07-17T16:24:15.256Z,98447.08
2018-07-17T16:26:43.638Z,98449.00
2018-07-17T16:29:11.926Z,98445.06
2018-07-17T16:31:43.496Z,98436.58
2018-07-17T16:34:11.853Z,98434.69
2018-07-17T16:36:41.290Z,98432.38
2018-07-17T16:39:09.742Z,98438.64
2018-07-17T16:41:38.143Z,98442.53
2018-07-17T16:44:06.534Z,98442.31
2018-07-17T16:46:34.887Z,98438.37
2018-07-17T16:49:04.247Z,98449.05
2018-07-17T16:51:32.627Z,98451.23
2018-07-17T16:54:00.990Z,98450.47
2018-07-17T16:56:29.521Z,98448.93
2018-07-17T16:58:57.920Z,98452.19
2018-07-17T17:01:26.262Z,98454.56
2018-07-17T17:03:54.587Z,98450.80
2018-07-17T17:06:24.015Z,98450.71
2018-07-17T17:08:52.325Z,98446.06
2018-07-17T17:11:20.863Z,98443.88
2018-07-17T17:13:49.259Z,98447.43
2018-07-17T17:16:17.685Z,98439.91
2018-07-17T17:18:46.137Z,98446.98
2018-07-17T17:21:14.589Z,98454.03
2018-07-17T17:23:43.007Z,98440.46
2018-07-17T17:26:11.418Z,98446.84
2018-07-17T17:28:39.740Z,98452.23
2018-07-17T17:31:08.139Z,98446.37
2018-07-17T17:33:36.435Z,98447.70
2018-07-17T17:36:04.802Z,98447.99
2018-07-17T17:38:33.448Z,98445.09
2018-07-17T17:41:01.847Z,98441.55
2018-07-17T17:43:30.259Z,98448.69
2018-07-17T17:45:58.620Z,98446.11
2018-07-17T17:48:26.950Z,98454.05
2018-07-17T17:50:55.290Z,98454.94
2018-07-17T17:53:23.622Z,98450.77
2018-07-17T17:55:51.998Z,98449.38
2018-07-17T17:58:20.689Z,98456.82
2018-07-17T18:00:49.650Z,98457.47
2018-07-17T18:03:18.072Z,98465.23
2018-07-17T18:05:46.451Z,98463.06
2018-07-17T18:08:14.834Z,98463.56
2018-07-17T18:10:43.153Z,98471.17
2018-07-17T18:13:11.532Z,98473.14
2018-07-17T18:15:39.999Z,98475.59
2018-07-17T18:18:08.480Z,98472.66
2018-07-17T18:20:36.974Z,98475.27
2018-07-17T18:23:05.349Z,98479.14
2018-07-17T18:25:33.866Z,98477.03
2018-07-17T18:28:02.310Z,98484.59
2018-07-17T18:30:30.694Z,98491.41
2018-07-17T18:32:59.286Z,98482.97
2018-07-17T18:35:27.699Z,98489.63
2018-07-17T18:37:56.135Z,98488.20
2018-07-17T18:40:24.471Z,98493.89
2018-07-17T18:42:53.136Z,98494.05
2018-07-17T18:45:21.739Z,98497.08
2018-07-17T18:47:50.232Z,98501.44
2018-07-17T18:50:18.615Z,98505.97
2018-07-17T18:52:49.203Z,98507.69
2018-07-17T18:55:17.605Z,98514.93
2018-07-17T18:57:51.960Z,98512.52
2018-07-17T19:00:20.510Z,98512.24
2018-07-17T19:02:48.970Z,98520.04
2018-07-17T19:05:17.450Z,98524.88
2018-07-17T19:07:46.698Z,98525.41
2018-07-17T19:10:16.433Z,98528.74
2018-07-17T19:12:45.030Z,98534.62
2018-07-17T19:15:13.336Z,98531.55
2018-07-17T19:17:41.840Z,98539.03
2018-07-17T19:20:10.725Z,98542.27
2018-07-17T19:22:39.154Z,98542.22
2018-07-17T19:25:07.537Z,98541.02
2018-07-17T19:27:36.072Z,98545.83
2018-07-17T19:30:04.575Z,98553.70
2018-07-17T19:32:32.942Z,98549.17
2018-07-17T19:35:01.413Z,98551.47
2018-07-17T19:37:29.845Z,98557.22
2018-07-17T19:39:58.184Z,98564.14
2018-07-17T19:42:26.504Z,98568.95
2018-07-17T19:44:55.230Z,98565.32
2018-07-17T19:47:23.671Z,98568.55
2018-07-17T19:49:52.090Z,98572.06
2018-07-17T19:52:20.543Z,98570.89
2018-07-17T19:54:49.415Z,98580.55
2018-07-17T19:57:17.757Z,98575.72
2018-07-17T19:59:46.104Z,98574.16
2018-07-17T20:02:15.553Z,98570.83
2018-07-17T20:04:44.003Z,98582.76
2018-07-17T20:07:12.343Z,98574.88
2018-07-17T20:09:40.789Z,98577.24
2018-07-17T20:12:09.251Z,98576.47
2018-07-17T20:14:37.769Z,98575.89
2018-07-17T20:17:06.046Z,98569.88
2018-07-17T20:19:34.442Z,98576.63
2018-07-17T20:22:02.807Z,98579.19
2018-07-17T20:24:31.287Z,98580.10
2018-07-17T20:26:59.814Z,98581.71
2018-07-17T20:29:32.190Z,98580.41
2018-07-17T20:32:00.540Z,98587.65
2018-07-17T20:34:29.044Z,98587.31
2018-07-17T20:36:57.436Z,98584.52
2018-07-17T20:39:25.754Z,98581.77
2018-07-17T20:41:54.143Z,98591.52
2018-07-17T20:44:22.535Z,98597.06
2018-07-17T20:46:50.970Z,98594.20
2018-07-17T20:49:19.396Z,98595.61
2018-07-17T20:51:47.674Z,98605.58
2018-07-17T20:54:16.402Z,98608.41
2018-07-17T20:56:44.730Z,98606.02
2018-07-17T20:59:13.229Z,98597.77
2018-07-17T21:01:42.608Z,98614.34
2018-07-17T21:04:10.963Z,98607.45
2018-07-17T21:06:39.339Z,98614.80
2018-07-17T21:09:09.582Z,98609.48
2018-07-17T21:11:38.075Z,98612.05
2018-07-17T21:14:12.431Z,98618.02
2018-07-17T21:16:41.058Z,98614.47
2018-07-17T21:19:10.560Z,98621.08
2018-07-17T21:21:39.527Z,98620.32
2018-07-17T21:24:07.925Z,98618.88
2018-07-17T21:26:36.242Z,98626.05
2018-07-17T21:29:04.583Z,98638.31
2018-07-17T21:31:32.890Z,98632.70
2018-07-17T21:34:01.236Z,98634.70
2018-07-17T21:36:29.631Z,98635.75
2018-07-17T21:38:58.012Z,98638.39
2018-07-17T21:41:26.304Z,98650.05
2018-07-17T21:43:54.697Z,98646.21
2018-07-17T21:46:23.010Z,98657.23
2018-07-17T21:48:51.403Z,98658.07
2018-07-17T21:51:19.710Z,98655.51
2018-07-17T21:53:48.049Z,98653.69
2018-07-17T21:56:16.423Z,98656.61
2018-07-17T21:58:44.782Z,98654.11
2018-07-17T22:01:13.141Z,98647.70
2018-07-17T22:03:41.503Z,98653.56
2018-07-17T22:06:09.862Z,98659.56
2018-07-17T22:08:38.294Z,98663.45
2018-07-17T22:11:06.927Z,98662.98
2018-07-17T22:13:35.612Z,98663.20
2018-07-17T22:16:04.038Z,98658.09
2018-07-17T22:18:32.963Z,98671.01
2018-07-17T22:21:01.267Z,98673.97
2018-07-17T22:23:29.608Z,98675.44
2018-07-17T22:25:58.536Z,98676.19
2018-07-17T22:28:26.866Z,98678.82
2018-07-17T22:30:55.367Z,98679.66
2018-07-17T22:33:24.791Z,98676.71
2018-07-17T22:35:53.163Z,98681.94
2018-07-17T22:38:21.464Z,98685.99
2018-07-17T22:40:49.807Z,98683.48
2018-07-17T22:43:18.376Z,98686.34
2018-07-17T22:45:46.736Z,98688.38
2018-07-17T22:48:15.020Z,98693.80
2018-07-17T22:50:43.857Z,98688.81
2018-07-17T22:53:12.179Z,98693.63
2018-07-17T22:55:40.662Z,98690.07
2018-07-17T22:58:09.030Z,98690.70
2018-07-17T23:00:37.400Z,98699.64
2018-07-17T23:03:05.760Z,98694.51
2018-07-17T23:05:34.146Z,98690.77
2018-07-17T23:08:02.511Z,98698.19
2018-07-17T23:10:30.822Z,98701.44
2018-07-17T23:12:59.208Z,98698.44
2018-07-17T23:15:27.534Z,98698.22
2018-07-17T23:17:55.882Z,98701.38
2018-07-17T23:20:24.201Z,98700.95
2018-07-17T23:22:56.677Z,98700.55
2018-07-17T23:25:26.094Z,98702.53
2018-07-17T23:27:55.402Z,98708.39
2018-07-17T23:30:23.785Z,98709.02
2018-07-17T23:32:52.864Z,98716.75
2018-07-17T23:35:22.854Z,98719.91
2018-07-17T23:37:51.931Z,98724.20
2018-07-17T23:40:22.106Z,98727.83
2018-07-17T23:42:50.491Z,98717.17
2018-07-17T23:45:19.206Z,98726.47
2018-07-17T23:47:48.419Z,98727.52
2018-07-17T23:50:16.815Z,98728.05
2018-07-17T23:52:45.080Z,98736.53
2018-07-17T23:55:13.459Z,98743.02
2018-07-17T23:57:41.868Z,98744.88
